NetherlandsFixed distance
Kennedymars
11 Apr1998
Distance
80km
Finishers
7471 men3 women
Winning time
7:57:35h
Median pace
7.99km/h
Pace distribution
74 finishers · 6.77–10.05 km/h · mean 8.02
Every finisher ran the same 80 km course, so these paces are directly comparable.
Histogram of finisher pace. 74 finishers ranged from 6.77 to 10.05 kilometres per hour, with a mean of 8.02 and a median of 7.99. The busiest band is 8.0 to 8.5 kilometres per hour, with 20 finishers.
Results
Ranks 51–74 of 74
| Rank | Runner | Time | Pace | Cat. | Placing |
|---|---|---|---|---|---|
| 51 | 10:25:52h | 7.67 | — | 48th M | |
| 52 | 10:30:14h | 7.62 | — | 50th M | |
| 53 | 10:32:42h | 7.59 | — | 51st M | |
| 54 | 10:32:43h | 7.59 | M45 | 52nd M · 7th M45 | |
| 55 | RWV | 10:32:46h | 7.59 | M65 | 53rd M · 2nd M65 |
| 56 | 10:40:54h | 7.49 | — | 54th M | |
| 57 | 10:43:10h | 7.46 | — | 55th M | |
| 58 | 10:43:11h | 7.46 | — | 56th M | |
| 59 | DE LAT | 10:43:58h | 7.45 | — | 3rd F |
| 60 | 10:43:58h | 7.45 | — | 57th M | |
| 61 | 10:48:30h | 7.40 | — | 58th M | |
| 62 | 10:52:00h | 7.36 | M60 | 59th M · 4th M60 | |
| 63 | 10:54:22h | 7.33 | — | 60th M | |
| 64 | 10:55:09h | 7.33 | — | 61st M | |
| 65 | 10:58:03h | 7.29 | — | 62nd M | |
| 66 | Olat | 11:02:50h | 7.24 | — | 63rd M |
| 67 | RWV | 11:09:45h | 7.17 | M23 | 64th M · 5th M23 |
| 68 | 11:14:54h | 7.11 | — | 65th M | |
| 69 | 11:15:10h | 7.11 | M23 | 66th M · 6th M23 | |
| 70 | 11:26:55h | 6.99 | — | 67th M | |
| 71 | 11:26:56h | 6.99 | — | 68th M | |
| 72 | 11:26:56h | 6.99 | — | 68th M | |
| 73 | 11:37:16h | 6.88 | — | 70th M | |
| 74 | 11:49:12h | 6.77 | — | 71st M |
- 5148th MTime10:25:52hPace7.67
- 5250th MTime10:30:14hPace7.62
- 5351st MTime10:32:42hPace7.59
- 5452nd M · 7th M45Time10:32:43hPace7.59Cat.M45
- 55RWV53rd M · 2nd M65Time10:32:46hPace7.59Cat.M65
- 5654th MTime10:40:54hPace7.49
- 5755th MTime10:43:10hPace7.46
- 5856th MTime10:43:11hPace7.46
- 59DE LAT3rd FTime10:43:58hPace7.45
- 6057th MTime10:43:58hPace7.45
- 6158th MTime10:48:30hPace7.40
- 6259th M · 4th M60Time10:52:00hPace7.36Cat.M60
- 6360th MTime10:54:22hPace7.33
- 6461st MTime10:55:09hPace7.33
- 6562nd MTime10:58:03hPace7.29
- 66Olat63rd MTime11:02:50hPace7.24
- 67RWV64th M · 5th M23Time11:09:45hPace7.17Cat.M23
- 6865th MTime11:14:54hPace7.11
- 6966th M · 6th M23Time11:15:10hPace7.11Cat.M23
- 7067th MTime11:26:55hPace6.99
- 7168th MTime11:26:56hPace6.99
- 7268th MTime11:26:56hPace6.99
- 7370th MTime11:37:16hPace6.88
- 7471st MTime11:49:12hPace6.77
Showing ranks 51–74 of 74